FNCAFNBG

Guest
Details From FNCA - CABINDA
To FNBG - BENGUELA
Flight Number -
Tags generated
Created
Modified
Stats Distance 431 nm / 799 km
Max Altitude 35,000 ft / 10,668 m
Waypoints 8
Social Downloads 0
Likes 0
Share VATSIM

Download

Looking for another format? Having issues loading an existing format? Contact us
Advertisement - Login to hide

Notes

Basic altitude profile: - Ascent Rate: 2500ft/min - Ascent Speed: 250kts - Cruise Altitude: 35000ft - Cruise Speed: 420kts - Descent Rate: 1500ft/min - Descent Speed: 250kts Options: - Use NATs: yes - Use PACOTS: yes - Use low airways: yes - Use high airways: yes

Route

FNCA SO R987F AVUTA UR987F VNA UJ614F LIRAM J614F BG FNBG

ID Type Via Altitude Latitude Longitude Leg Dist Tot Dist Heading (true) Name
O FNCA APT - 0 ft / 0 m -5.59699˚ 12.18835˚ - 0 nm - CABINDA
SO NDB - 11,100 ft / 3,383 m -6.13333˚ 12.36667˚ 33 nm 33 nm 162° / 162° SOYO NDB
AVUTA FIX R987F (AWY-LO) 23,500 ft / 7,163 m -6.93167˚ 12.62667˚ 50 nm 84 nm 162° / 162° -
IMLEX FIX UR987F (AWY-HI) 35,000 ft / 10,668 m -7.56500˚ 12.83333˚ 39 nm 124 nm 162° / 162° -
VNA VOR UR987F (AWY-HI) 35,000 ft / 10,668 m -8.84548˚ 13.24748˚ 80 nm 205 nm 162° / 162° LUANDA VOR-DME
LIRAM FIX UJ614F (AWY-HI) 23,500 ft / 7,163 m -10.83333˚ 13.33000˚ 119 nm 324 nm 178° / 178° -
BG NDB J614F (AWY-LO) 6,000 ft / 1,829 m -12.60813˚ 13.40540˚ 106 nm 431 nm 178° / 178° BENGUELA NDB
O FNBG APT - 0 ft / 0 m -12.60902˚ 13.40371˚ 0 nm 431 nm 242° / 242° BENGUELA

Altitude Profile

Advertisement - Login to hide

Weather


0- 5 10 15 20 25 30 35+ Temperature / ° C

Clouds and Precipitation
Forecast for 2017-12-18 18:00 UTC. Updated 2 hours ago

Ground ~20,000 ft ~40,000 ft Winds

FNCA

Details ICAO FNCA (CAB)
Name CABINDA
Region Angola
Timezone Africa/Luanda (UTC+1.0)
Stats Elevation 66 ft / 20 m (AMSL)
Location -5.596992° 12.188351°
Runways 1
Magnetic Variation 2.688° W

METAR

FNCA 181400Z 25007KT 9999 FEW010 BKN023 27/25 Q1010

Decode

TAF

Not found

Departure Runways

ID Width Length Bearing (true) Bearing (mag) Surface Threshold Offset Overrun Length
01 98 ft / 30 m 8,248 ft / 2,514 m 359.08° 1.77° Asphalt 0 ft / 0 m 95 ft / 29 m
19 98 ft / 30 m 8,248 ft / 2,514 m 179.08° 181.77° Asphalt 0 ft / 0 m 135 ft / 41 m

FNBG

Details ICAO FNBG (BUG)
Name BENGUELA
Region Angola
Timezone Africa/Luanda (UTC+1.0)
Stats Elevation 118 ft / 36 m (AMSL)
Location -12.609023° 13.403712°
Runways 1
Magnetic Variation 5.147° W

METAR

FNBG 181400Z 30006KT 9999 FEW020 FEW025CB BKN100 26/20 Q1010

Decode

TAF

Not found

Destination Runways

ID Width Length Bearing (true) Bearing (mag) Surface Threshold Offset Overrun Length
14 100 ft / 30 m 5,263 ft / 1,604 m 130.28° 135.43° Asphalt 0 ft / 0 m 328 ft / 100 m
32 100 ft / 30 m 5,263 ft / 1,604 m 310.28° 315.43° Asphalt 0 ft / 0 m 185 ft / 56 m